Terminal Aerodrome Forecast
Issued by NWS Sioux Falls, SD

Home | Current Version | Previous Version | Text Only | Print | Product List | Glossary On
Versions: 1 2 3 4 5 6 7 8 9 10 11 12 13 14 15 16 17 18 19 20 21 22 23 24 25 26 27 28 29 30 31 32 33 34 35 36 37 38 39 40 41
000
FTUS43 KFSD 120700 AAA
TAFSUX
TAF AMD
KSUX 120741Z 1208/1306 VRB05KT 6SM SHRA SCT025 OVC080
      TEMPO 1208/1210 4SM TSRA BKN025CB
     FM121300 04006KT P6SM SCT035 OVC050
     FM121400 05008KT P6SM SCT040 BKN090=

USA.gov is the U.S. government's official web portal to all federal, state and local government web resources and services.